createdAt,value
2019-05-15T00:00:44.049Z,85.20
2019-05-15T00:01:44.042Z,84.87
2019-05-15T00:02:44.024Z,85.49
2019-05-15T00:03:44.011Z,85.53
2019-05-15T00:04:43.999Z,85.72
2019-05-15T00:05:43.988Z,85.53
2019-05-15T00:06:43.974Z,85.44
2019-05-15T00:07:43.964Z,85.63
2019-05-15T00:08:43.949Z,85.35
2019-05-15T00:09:43.940Z,85.44
2019-05-15T00:10:43.927Z,86.30
2019-05-15T00:11:43.912Z,86.11
2019-05-15T00:12:43.901Z,86.20
2019-05-15T00:13:43.888Z,86.11
2019-05-15T00:14:43.874Z,87.24
2019-05-15T00:15:43.863Z,86.77
2019-05-15T00:16:43.853Z,86.77
2019-05-15T00:17:43.837Z,86.87
2019-05-15T00:18:43.824Z,85.72
2019-05-15T00:19:43.812Z,85.44
2019-05-15T00:20:43.838Z,84.11
2019-05-15T00:21:43.788Z,84.21
2019-05-15T00:22:43.774Z,84.68
2019-05-15T00:23:43.762Z,84.68
2019-05-15T00:24:43.750Z,85.53
2019-05-15T00:25:43.744Z,85.82
2019-05-15T00:26:43.724Z,85.72
2019-05-15T00:27:43.712Z,86.58
2019-05-15T00:28:43.700Z,86.30
2019-05-15T00:29:43.688Z,86.77
2019-05-15T00:30:43.674Z,86.30
2019-05-15T00:31:43.661Z,87.53
2019-05-15T00:32:43.648Z,87.15
2019-05-15T00:33:43.636Z,87.62
2019-05-15T00:34:43.622Z,88.39
2019-05-15T00:35:43.610Z,88.29
2019-05-15T00:36:43.599Z,88.67
2019-05-15T00:37:43.585Z,89.33
2019-05-15T00:38:43.571Z,89.24
2019-05-15T00:39:43.559Z,89.24
2019-05-15T00:40:43.546Z,89.05
2019-05-15T00:41:53.380Z,88.72
2019-05-15T00:42:43.522Z,88.29
2019-05-15T00:43:43.509Z,88.39
2019-05-15T00:44:43.500Z,89.43
2019-05-15T00:45:44.474Z,89.24
2019-05-15T00:46:43.470Z,90.19
2019-05-15T00:47:43.456Z,90.28
2019-05-15T00:48:43.445Z,90.28
2019-05-15T00:49:43.431Z,90.38
2019-05-15T00:50:43.417Z,90.09
2019-05-15T00:51:43.405Z,90.09
2019-05-15T00:52:43.394Z,90.57
2019-05-15T00:53:43.379Z,90.33
2019-05-15T00:54:43.377Z,90.05
2019-05-15T00:55:43.353Z,90.28
2019-05-15T00:56:43.340Z,89.81
2019-05-15T00:57:43.328Z,90.05
2019-05-15T00:58:43.314Z,90.33
2019-05-15T00:59:43.304Z,90.28
2019-05-15T01:00:43.299Z,90.05
2019-05-15T01:01:43.277Z,90.52
2019-05-15T01:02:43.263Z,90.71
2019-05-15T01:03:43.254Z,90.71
2019-05-15T01:04:43.238Z,90.24
2019-05-15T01:05:43.226Z,89.86
2019-05-15T01:06:43.214Z,89.67
2019-05-15T01:07:43.199Z,89.00
2019-05-15T01:08:43.196Z,89.20
2019-05-15T01:09:43.179Z,90.14
2019-05-15T01:10:43.172Z,90.14
2019-05-15T01:11:43.148Z,90.14
2019-05-15T01:12:43.135Z,90.43
2019-05-15T01:13:43.124Z,90.81
2019-05-15T01:14:43.108Z,90.71
2019-05-15T01:15:43.095Z,90.05
2019-05-15T01:16:43.086Z,90.14
2019-05-15T01:17:43.071Z,90.52
2019-05-15T01:18:43.057Z,90.05
2019-05-15T01:19:43.044Z,89.95
2019-05-15T01:20:43.039Z,90.24
2019-05-15T01:21:43.019Z,90.90
2019-05-15T01:22:43.005Z,90.81
2019-05-15T01:23:42.993Z,91.38
2019-05-15T01:24:42.979Z,91.75
2019-05-15T01:25:42.966Z,92.14
2019-05-15T01:26:42.953Z,92.61
2019-05-15T01:27:42.940Z,92.33
2019-05-15T01:28:42.928Z,92.33
2019-05-15T01:29:45.089Z,92.33
2019-05-15T01:30:42.905Z,91.94
2019-05-15T01:31:42.889Z,91.94
2019-05-15T01:32:42.874Z,91.56
2019-05-15T01:33:42.862Z,91.94
2019-05-15T01:34:42.848Z,92.04
2019-05-15T01:35:42.835Z,92.23
2019-05-15T01:36:42.822Z,92.99
2019-05-15T01:37:42.809Z,92.99
2019-05-15T01:38:42.796Z,93.27
2019-05-15T01:39:42.783Z,94.32
2019-05-15T01:40:42.769Z,93.46
2019-05-15T01:41:42.757Z,93.65
2019-05-15T01:42:42.743Z,93.46
2019-05-15T01:43:42.730Z,93.37
2019-05-15T01:44:42.718Z,93.46
2019-05-15T01:45:42.704Z,93.46
2019-05-15T01:46:42.689Z,93.37
2019-05-15T01:47:42.683Z,93.18
2019-05-15T01:48:42.665Z,93.08
2019-05-15T01:49:42.650Z,93.37
2019-05-15T01:50:42.641Z,93.37
2019-05-15T01:51:42.623Z,92.90
2019-05-15T01:52:42.614Z,92.90
2019-05-15T01:53:42.597Z,92.99
2019-05-15T01:54:42.583Z,93.37
2019-05-15T01:55:42.571Z,92.99
2019-05-15T01:56:42.557Z,93.27
2019-05-15T01:57:42.544Z,92.90
2019-05-15T01:58:42.530Z,93.94
2019-05-15T01:59:53.955Z,93.37
2019-05-15T02:00:42.504Z,93.37
2019-05-15T02:01:42.492Z,93.37
2019-05-15T02:02:42.477Z,93.18
2019-05-15T02:03:42.463Z,93.08
2019-05-15T02:04:42.451Z,92.52
2019-05-15T02:05:42.437Z,92.99
2019-05-15T02:06:42.423Z,93.04
2019-05-15T02:07:42.410Z,93.37
2019-05-15T02:08:42.398Z,93.27
2019-05-15T02:09:42.385Z,93.04
2019-05-15T02:10:42.374Z,93.13
2019-05-15T02:11:42.356Z,93.32
2019-05-15T02:12:42.345Z,93.51
2019-05-15T02:13:42.332Z,93.51
2019-05-15T02:14:42.316Z,93.99
2019-05-15T02:15:42.302Z,93.70
2019-05-15T02:16:42.288Z,94.08
2019-05-15T02:17:42.277Z,94.65
2019-05-15T02:18:42.261Z,94.65
2019-05-15T02:19:42.248Z,94.93
2019-05-15T02:20:42.247Z,95.31
2019-05-15T02:21:42.220Z,95.41
2019-05-15T02:22:42.702Z,94.56
2019-05-15T02:23:42.196Z,95.41
2019-05-15T02:24:42.181Z,95.03
2019-05-15T02:25:42.167Z,95.60
2019-05-15T02:26:42.152Z,95.31
2019-05-15T02:27:42.140Z,94.65
2019-05-15T02:28:42.126Z,94.74
2019-05-15T02:29:42.114Z,95.50
2019-05-15T02:30:42.100Z,95.12
2019-05-15T02:31:42.086Z,95.03
2019-05-15T02:32:42.080Z,95.31
2019-05-15T02:33:42.059Z,95.31
2019-05-15T02:34:42.048Z,95.88
2019-05-15T02:35:42.032Z,96.26
2019-05-15T02:36:42.018Z,96.36
2019-05-15T02:37:42.004Z,96.08
2019-05-15T02:38:41.990Z,96.73
2019-05-15T02:39:41.977Z,96.73
2019-05-15T02:40:41.963Z,96.64
2019-05-15T02:41:41.950Z,96.83
2019-05-15T02:42:41.937Z,96.26
2019-05-15T02:43:41.924Z,97.31
2019-05-15T02:44:41.909Z,97.40
2019-05-15T02:45:42.737Z,97.02
2019-05-15T02:46:41.883Z,97.21
2019-05-15T02:47:41.867Z,97.59
2019-05-15T02:48:41.858Z,97.78
2019-05-15T02:49:41.841Z,98.16
2019-05-15T02:50:41.826Z,98.07
2019-05-15T02:51:41.813Z,98.44
2019-05-15T02:52:45.214Z,97.59
2019-05-15T02:53:41.786Z,97.78
2019-05-15T02:54:41.772Z,97.64
2019-05-15T02:55:41.764Z,98.21
2019-05-15T02:56:41.747Z,98.11
2019-05-15T02:57:41.735Z,98.30
2019-05-15T02:58:41.718Z,98.21
2019-05-15T02:59:41.712Z,97.73
2019-05-15T03:00:48.391Z,98.58
2019-05-15T03:01:41.678Z,98.39
2019-05-15T03:02:41.804Z,98.44
2019-05-15T03:03:41.652Z,97.73
2019-05-15T03:04:41.636Z,98.39
2019-05-15T03:05:41.630Z,98.30
2019-05-15T03:06:41.608Z,98.30
2019-05-15T03:07:41.596Z,98.02
2019-05-15T03:08:41.583Z,98.30
2019-05-15T03:09:41.569Z,98.30
2019-05-15T03:10:41.557Z,98.39
2019-05-15T03:11:41.541Z,98.49
2019-05-15T03:12:41.528Z,98.02
2019-05-15T03:13:41.514Z,98.39
2019-05-15T03:14:41.499Z,98.49
2019-05-15T03:15:41.505Z,98.77
2019-05-15T03:16:41.494Z,99.06
2019-05-15T03:17:41.468Z,99.25
2019-05-15T03:18:41.444Z,98.96
2019-05-15T03:19:41.430Z,99.06
2019-05-15T03:20:41.418Z,99.53
2019-05-15T03:21:41.404Z,99.91
2019-05-15T03:22:41.390Z,99.99
2019-05-15T03:23:41.376Z,99.99
2019-05-15T03:24:41.372Z,99.99
2019-05-15T03:25:41.348Z,99.99
2019-05-15T03:26:41.335Z,99.99
2019-05-15T03:27:41.322Z,99.99
2019-05-15T03:28:41.309Z,99.99
2019-05-15T03:29:41.296Z,99.99
2019-05-15T03:31:12.235Z,99.99
2019-05-15T03:31:59.155Z,99.99
2019-05-15T03:32:52.299Z,99.99
2019-05-15T03:33:45.677Z,99.99
2019-05-15T03:34:47.402Z,99.99
2019-05-15T03:35:43.894Z,99.99
2019-05-15T03:36:45.446Z,99.99
2019-05-15T03:37:41.196Z,99.99
2019-05-15T03:38:41.168Z,99.99
2019-05-15T03:39:41.154Z,99.99
2019-05-15T03:40:41.148Z,99.99
2019-05-15T03:41:41.134Z,99.99
2019-05-15T03:42:41.111Z,99.99
2019-05-15T03:43:41.098Z,99.99
2019-05-15T03:44:41.085Z,99.99
2019-05-15T03:45:41.071Z,99.99
2019-05-15T03:46:41.111Z,99.99
2019-05-15T03:47:41.042Z,99.99
2019-05-15T03:48:41.027Z,99.99
2019-05-15T03:49:41.025Z,99.99
2019-05-15T03:50:41.000Z,99.99
2019-05-15T03:51:45.435Z,99.99
2019-05-15T03:52:40.973Z,99.99
2019-05-15T03:53:40.965Z,99.99
2019-05-15T03:54:40.947Z,99.99
2019-05-15T03:55:41.080Z,99.99
2019-05-15T03:56:40.920Z,99.99
2019-05-15T03:57:40.902Z,99.99
2019-05-15T03:58:40.889Z,99.99
2019-05-15T03:59:40.876Z,99.99
2019-05-15T04:00:40.861Z,99.99
2019-05-15T04:01:43.818Z,99.99
2019-05-15T04:02:40.833Z,99.99
2019-05-15T04:03:40.822Z,99.99
2019-05-15T04:04:40.809Z,99.99
2019-05-15T04:05:40.798Z,99.99
2019-05-15T04:06:40.778Z,99.99
2019-05-15T04:07:40.764Z,99.99
2019-05-15T04:08:40.754Z,99.99
2019-05-15T04:09:40.737Z,99.99
2019-05-15T04:10:40.729Z,99.99
2019-05-15T04:11:40.708Z,99.99
2019-05-15T04:12:40.974Z,99.99
2019-05-15T04:13:40.681Z,99.99
2019-05-15T04:14:40.668Z,99.99
2019-05-15T04:15:40.652Z,99.99
2019-05-15T04:16:40.639Z,99.99
2019-05-15T04:17:40.809Z,99.99
2019-05-15T04:18:40.610Z,99.99
2019-05-15T04:19:40.597Z,99.99
2019-05-15T04:20:41.070Z,99.99
2019-05-15T04:21:44.593Z,99.99
2019-05-15T04:22:40.713Z,99.99
2019-05-15T04:23:40.547Z,99.99
2019-05-15T04:24:40.533Z,99.99
2019-05-15T04:25:40.519Z,99.99
2019-05-15T04:26:40.501Z,99.99
2019-05-15T04:27:40.510Z,99.99
2019-05-15T04:28:41.590Z,99.99
2019-05-15T04:29:40.461Z,99.99
2019-05-15T04:30:40.446Z,99.99
2019-05-15T04:31:51.763Z,99.99
2019-05-15T04:32:40.663Z,99.99
2019-05-15T04:33:40.588Z,99.99
2019-05-15T04:34:40.387Z,99.44
2019-05-15T04:35:40.674Z,99.44
2019-05-15T04:36:44.300Z,99.82
2019-05-15T04:37:41.145Z,99.82
2019-05-15T04:38:40.332Z,99.99
2019-05-15T04:39:40.357Z,99.99
2019-05-15T04:40:40.305Z,99.99
2019-05-15T04:41:40.303Z,99.99
2019-05-15T04:42:40.284Z,99.99
2019-05-15T04:43:45.075Z,99.99
2019-05-15T04:44:40.251Z,99.99
2019-05-15T04:45:40.241Z,99.99
2019-05-15T04:46:40.223Z,99.99
2019-05-15T04:47:40.385Z,99.99
2019-05-15T04:48:40.454Z,99.99
2019-05-15T04:49:40.187Z,99.99
2019-05-15T04:50:40.528Z,99.99
2019-05-15T04:51:40.157Z,99.99
2019-05-15T04:52:43.407Z,99.99
2019-05-15T04:53:40.155Z,99.99
2019-05-15T04:54:40.493Z,99.99
2019-05-15T04:55:40.900Z,99.99
2019-05-15T04:56:40.313Z,99.87
2019-05-15T04:57:40.951Z,99.87
2019-05-15T04:58:40.057Z,99.68
2019-05-15T04:59:40.056Z,99.58
2019-05-15T05:00:40.209Z,99.96
2019-05-15T05:01:40.587Z,99.30
2019-05-15T05:02:40.750Z,99.54
2019-05-15T05:03:39.989Z,99.30
2019-05-15T05:04:39.977Z,99.26
2019-05-15T05:05:39.985Z,98.49
2019-05-15T05:06:39.951Z,97.45
2019-05-15T05:07:40.072Z,96.88
2019-05-15T05:08:40.246Z,96.41
2019-05-15T05:09:39.912Z,95.55
2019-05-15T05:10:39.896Z,95.36
2019-05-15T05:11:39.884Z,95.46
2019-05-15T05:12:41.812Z,95.36
2019-05-15T05:13:39.857Z,94.70
2019-05-15T05:14:39.842Z,94.60
2019-05-15T05:15:39.830Z,94.42
2019-05-15T05:16:39.818Z,94.13
2019-05-15T05:17:39.805Z,93.56
2019-05-15T05:18:41.681Z,93.37
2019-05-15T05:19:40.340Z,93.18
2019-05-15T05:20:39.763Z,92.90
2019-05-15T05:21:39.750Z,93.32
2019-05-15T05:22:39.806Z,93.04
2019-05-15T05:23:39.723Z,92.37
2019-05-15T05:24:39.712Z,91.52
2019-05-15T05:25:39.697Z,92.56
2019-05-15T05:26:39.684Z,92.75
2019-05-15T05:27:39.674Z,91.52
2019-05-15T05:28:39.657Z,91.24
2019-05-15T05:29:39.645Z,90.85
2019-05-15T05:30:39.632Z,90.28
2019-05-15T05:31:39.618Z,90.09
2019-05-15T05:32:39.606Z,90.47
2019-05-15T05:33:39.592Z,90.33
2019-05-15T05:34:39.581Z,90.90
2019-05-15T05:35:39.566Z,89.28
2019-05-15T05:36:39.555Z,88.71
2019-05-15T05:37:39.548Z,89.09
2019-05-15T05:38:39.529Z,88.34
2019-05-15T05:39:39.673Z,88.05
2019-05-15T05:40:39.508Z,87.57
2019-05-15T05:41:39.492Z,87.67
2019-05-15T05:42:39.478Z,88.43
2019-05-15T05:43:39.467Z,88.47
2019-05-15T05:44:42.649Z,87.90
2019-05-15T05:45:39.443Z,87.43
2019-05-15T05:46:39.828Z,86.95
2019-05-15T05:47:39.417Z,86.67
2019-05-15T05:48:39.405Z,85.91
2019-05-15T05:49:39.394Z,86.00
2019-05-15T05:50:39.381Z,86.90
2019-05-15T05:51:39.370Z,86.95
2019-05-15T05:52:39.396Z,86.14
2019-05-15T05:53:39.345Z,86.33
2019-05-15T05:54:39.336Z,85.76
2019-05-15T05:55:39.324Z,85.38
2019-05-15T05:56:39.311Z,85.19
2019-05-15T05:57:39.298Z,84.43
2019-05-15T05:58:39.367Z,84.52
2019-05-15T05:59:39.274Z,84.72
2019-05-15T06:00:39.423Z,84.38
2019-05-15T06:01:43.877Z,84.85
2019-05-15T06:02:47.457Z,84.95
2019-05-15T06:03:39.228Z,85.24
2019-05-15T06:04:39.219Z,84.19
2019-05-15T06:05:39.206Z,83.42
2019-05-15T06:06:39.193Z,81.90
2019-05-15T06:07:39.183Z,81.05
2019-05-15T06:08:39.200Z,80.66
2019-05-15T06:09:39.160Z,80.80
2019-05-15T06:10:39.151Z,80.90
2019-05-15T06:11:39.138Z,81.66
2019-05-15T06:12:39.231Z,81.56
2019-05-15T06:13:39.120Z,81.85
2019-05-15T06:14:39.204Z,80.71
2019-05-15T06:15:39.105Z,80.71
2019-05-15T06:16:39.085Z,79.60
2019-05-15T06:17:39.561Z,78.08
2019-05-15T06:18:39.154Z,77.32
2019-05-15T06:19:39.050Z,78.08
2019-05-15T06:20:39.586Z,77.22
2019-05-15T06:21:52.520Z,78.27
2019-05-15T06:22:39.068Z,77.89
2019-05-15T06:23:45.127Z,76.79
2019-05-15T06:24:38.995Z,75.55
2019-05-15T06:25:39.202Z,74.31
2019-05-15T06:26:38.973Z,74.21
2019-05-15T06:27:39.376Z,75.16
2019-05-15T06:28:39.629Z,74.21
2019-05-15T06:29:38.941Z,74.98
2019-05-15T06:30:38.930Z,74.12
2019-05-15T06:31:39.024Z,74.50
2019-05-15T06:32:39.825Z,73.11
2019-05-15T06:33:38.902Z,72.06
2019-05-15T06:34:38.889Z,71.48
2019-05-15T06:35:39.542Z,69.01
2019-05-15T06:36:39.422Z,68.34
2019-05-15T06:37:39.830Z,66.34
2019-05-15T06:38:39.463Z,65.29
2019-05-15T06:39:39.213Z,65.10
2019-05-15T06:40:39.529Z,64.53
2019-05-15T06:41:39.185Z,64.34
2019-05-15T06:42:39.631Z,63.89
2019-05-15T06:43:39.144Z,64.56
2019-05-15T06:44:38.985Z,64.56
2019-05-15T06:45:38.776Z,65.42
2019-05-15T06:46:39.250Z,65.70
2019-05-15T06:47:39.592Z,66.47
2019-05-15T06:48:38.745Z,67.65
2019-05-15T06:49:38.736Z,67.65
2019-05-15T06:50:38.727Z,67.65
2019-05-15T06:51:38.716Z,67.83
2019-05-15T06:52:38.707Z,67.46
2019-05-15T06:53:38.744Z,66.02
2019-05-15T06:54:38.687Z,65.83
2019-05-15T06:55:39.009Z,67.55
2019-05-15T06:56:39.067Z,65.83
2019-05-15T06:57:39.670Z,63.92
2019-05-15T06:58:38.827Z,63.45
2019-05-15T06:59:39.014Z,62.59
2019-05-15T07:00:39.233Z,63.64
2019-05-15T07:01:38.770Z,62.15
2019-05-15T07:02:38.642Z,62.91
2019-05-15T07:03:39.492Z,61.95
2019-05-15T07:04:38.605Z,61.66
2019-05-15T07:05:38.748Z,61.29
2019-05-15T07:06:38.580Z,62.55
2019-05-15T07:07:39.008Z,61.89
2019-05-15T07:08:38.569Z,59.50
2019-05-15T07:09:38.559Z,58.54
2019-05-15T07:10:38.555Z,60.58
2019-05-15T07:11:38.899Z,61.35
2019-05-15T07:12:39.315Z,60.39
2019-05-15T07:13:38.613Z,61.16
2019-05-15T07:14:38.535Z,59.44
2019-05-15T07:15:38.624Z,59.15
2019-05-15T07:16:39.137Z,56.85
2019-05-15T07:17:39.282Z,57.71
2019-05-15T07:18:39.228Z,58.58
2019-05-15T07:19:39.352Z,57.04
2019-05-15T07:20:39.113Z,55.45
2019-05-15T07:21:38.942Z,54.97
2019-05-15T07:22:39.166Z,55.54
2019-05-15T07:23:38.912Z,53.85
2019-05-15T07:24:38.502Z,52.32
2019-05-15T07:25:39.097Z,51.93
2019-05-15T07:26:39.183Z,50.98
2019-05-15T07:27:39.267Z,51.93
2019-05-15T07:28:38.497Z,52.32
2019-05-15T07:29:38.704Z,53.08
2019-05-15T07:30:41.118Z,53.85
2019-05-15T07:31:38.638Z,53.69
2019-05-15T07:32:39.669Z,53.11
2019-05-15T07:33:43.168Z,51.48
2019-05-15T07:34:38.494Z,52.34
2019-05-15T07:35:38.692Z,51.29
2019-05-15T07:36:38.973Z,51.89
2019-05-15T07:37:39.010Z,50.36
2019-05-15T07:38:39.187Z,49.69
2019-05-15T07:39:38.495Z,47.78
2019-05-15T07:40:39.643Z,47.68
2019-05-15T07:41:39.211Z,49.21
2019-05-15T07:42:38.998Z,49.02
2019-05-15T07:43:38.577Z,49.98
2019-05-15T07:44:38.970Z,49.24
2019-05-15T07:45:43.636Z,49.33
2019-05-15T07:46:38.501Z,49.81
2019-05-15T07:47:38.951Z,47.51
2019-05-15T07:48:38.676Z,47.51
2019-05-15T07:49:38.948Z,47.61
2019-05-15T07:50:38.955Z,45.98
2019-05-15T07:51:38.510Z,46.46
2019-05-15T07:52:39.442Z,45.79
2019-05-15T07:53:38.704Z,45.21
2019-05-15T07:54:38.562Z,44.56
2019-05-15T07:55:39.327Z,44.85
2019-05-15T07:56:38.523Z,45.83
2019-05-15T07:57:39.275Z,45.93
2019-05-15T07:58:38.839Z,44.18
2019-05-15T07:59:38.786Z,45.81
2019-05-15T08:00:39.529Z,46.00
2019-05-15T08:01:38.812Z,47.44
2019-05-15T08:02:38.541Z,46.86
2019-05-15T08:03:55.090Z,47.44
2019-05-15T08:04:38.555Z,45.90
2019-05-15T08:05:54.658Z,46.48
2019-05-15T08:06:38.929Z,47.37
2019-05-15T08:07:38.949Z,45.64
2019-05-15T08:08:39.324Z,45.83
2019-05-15T08:09:39.101Z,47.08
2019-05-15T08:10:39.619Z,45.74
2019-05-15T08:11:39.245Z,44.78
2019-05-15T08:12:39.293Z,42.57
2019-05-15T08:13:38.584Z,43.60
2019-05-15T08:14:38.939Z,44.56
2019-05-15T08:15:38.592Z,45.90
2019-05-15T08:16:39.570Z,45.81
2019-05-15T08:17:59.011Z,44.30
2019-05-15T08:18:39.386Z,44.66
2019-05-15T08:19:38.651Z,44.87
2019-05-15T08:20:38.663Z,45.74
2019-05-15T08:21:38.773Z,44.49
2019-05-15T08:22:38.623Z,45.16
2019-05-15T08:23:39.103Z,44.59
2019-05-15T08:24:39.114Z,44.49
2019-05-15T08:25:38.998Z,42.96
2019-05-15T08:26:42.484Z,44.68
2019-05-15T08:27:38.645Z,45.28
2019-05-15T08:28:38.656Z,43.46
2019-05-15T08:29:38.655Z,42.02
2019-05-15T08:30:39.044Z,41.44
2019-05-15T08:31:38.991Z,40.27
2019-05-15T08:32:39.040Z,42.57
2019-05-15T08:33:39.056Z,41.04
2019-05-15T08:34:38.784Z,41.80
2019-05-15T08:35:38.838Z,40.56
2019-05-15T08:36:38.696Z,41.33
2019-05-15T08:37:38.695Z,41.90
2019-05-15T08:38:38.698Z,41.33
2019-05-15T08:39:38.704Z,40.75
2019-05-15T08:40:41.117Z,41.90
2019-05-15T08:41:39.198Z,42.47
2019-05-15T08:42:41.511Z,42.02
2019-05-15T08:43:38.724Z,42.30
2019-05-15T08:44:38.860Z,43.00
2019-05-15T08:45:39.214Z,42.13
2019-05-15T08:46:38.912Z,42.06
2019-05-15T08:47:38.803Z,39.66
2019-05-15T08:48:38.749Z,39.66
2019-05-15T08:49:40.891Z,39.45
2019-05-15T08:50:39.126Z,39.93
2019-05-15T08:51:38.767Z,39.64
2019-05-15T08:52:39.385Z,39.81
2019-05-15T08:53:38.775Z,39.98
2019-05-15T08:54:38.779Z,40.37
2019-05-15T08:55:39.200Z,41.71
2019-05-15T08:56:39.404Z,42.69
2019-05-15T08:57:38.796Z,42.60
2019-05-15T08:58:38.800Z,42.71
2019-05-15T08:59:38.812Z,42.35
2019-05-15T09:00:40.147Z,40.62
2019-05-15T09:01:38.816Z,39.66
2019-05-15T09:02:38.836Z,38.70
2019-05-15T09:03:38.827Z,38.39
2019-05-15T09:04:38.861Z,39.04
2019-05-15T09:05:39.002Z,40.58
2019-05-15T09:06:41.357Z,40.56
2019-05-15T09:07:38.849Z,41.80
2019-05-15T09:08:39.384Z,41.23
2019-05-15T09:09:38.864Z,41.33
2019-05-15T09:10:38.865Z,42.07
2019-05-15T09:11:39.470Z,42.96
2019-05-15T09:12:39.118Z,43.24
2019-05-15T09:13:43.508Z,42.21
2019-05-15T09:14:38.885Z,39.72
2019-05-15T09:15:39.655Z,40.39
2019-05-15T09:16:38.985Z,39.72
2019-05-15T09:17:39.824Z,39.81
2019-05-15T09:18:39.235Z,40.10
2019-05-15T09:19:38.933Z,38.83
2019-05-15T09:20:38.921Z,39.22
2019-05-15T09:21:39.030Z,41.25
2019-05-15T09:22:38.927Z,39.26
2019-05-15T09:23:39.137Z,38.10
2019-05-15T09:24:38.937Z,36.49
2019-05-15T09:25:39.098Z,35.36
2019-05-15T09:26:40.385Z,35.08
2019-05-15T09:27:38.956Z,33.74
2019-05-15T09:28:39.358Z,32.59
2019-05-15T09:29:38.968Z,30.38
2019-05-15T09:30:39.248Z,32.10
2019-05-15T09:31:39.322Z,31.53
2019-05-15T09:32:39.482Z,32.20
2019-05-15T09:33:39.009Z,31.24
2019-05-15T09:34:50.851Z,32.30
2019-05-15T09:35:39.459Z,30.47
2019-05-15T09:36:42.260Z,28.84
2019-05-15T09:37:39.021Z,29.13
2019-05-15T09:38:39.335Z,29.22
2019-05-15T09:39:39.041Z,30.36
2019-05-15T09:40:45.948Z,31.13
2019-05-15T09:41:39.048Z,31.13
2019-05-15T09:42:39.071Z,32.65
2019-05-15T09:43:42.192Z,33.62
2019-05-15T09:44:39.254Z,33.26
2019-05-15T09:45:39.077Z,31.62
2019-05-15T09:46:39.081Z,30.18
2019-05-15T09:47:39.790Z,29.30
2019-05-15T09:48:39.269Z,29.77
2019-05-15T09:49:39.244Z,29.48
2019-05-15T09:50:39.645Z,29.83
2019-05-15T09:51:39.125Z,30.52
2019-05-15T09:52:39.273Z,32.15
2019-05-15T09:53:39.663Z,31.40
2019-05-15T09:54:39.184Z,31.90
2019-05-15T09:55:39.143Z,30.26
2019-05-15T09:56:39.150Z,30.76
2019-05-15T09:57:39.194Z,30.17
2019-05-15T09:58:39.164Z,29.49
2019-05-15T09:59:39.285Z,29.40
2019-05-15T10:00:39.181Z,28.63
2019-05-15T10:01:39.611Z,29.69
2019-05-15T10:02:39.703Z,29.19
2019-05-15T10:03:44.077Z,29.67
2019-05-15T10:04:39.209Z,30.15
2019-05-15T10:05:39.213Z,31.90
2019-05-15T10:06:39.270Z,29.69
2019-05-15T10:07:40.428Z,30.18
2019-05-15T10:08:39.941Z,29.70
2019-05-15T10:09:39.242Z,29.97
2019-05-15T10:10:39.250Z,29.70
2019-05-15T10:11:39.257Z,28.82
2019-05-15T10:12:39.272Z,31.43
2019-05-15T10:13:39.273Z,32.68
2019-05-15T10:14:39.277Z,29.33
2019-05-15T10:15:39.286Z,28.64
2019-05-15T10:16:39.292Z,29.80
2019-05-15T10:17:39.308Z,31.54
2019-05-15T10:18:39.452Z,32.04
2019-05-15T10:19:39.321Z,31.56
2019-05-15T10:20:39.322Z,30.50
2019-05-15T10:21:40.213Z,29.14
2019-05-15T10:22:39.336Z,29.91
2019-05-15T10:23:40.293Z,28.64
2019-05-15T10:24:39.359Z,29.02
2019-05-15T10:25:39.359Z,29.02
2019-05-15T10:26:39.599Z,29.02
2019-05-15T10:27:39.945Z,28.33
2019-05-15T10:28:39.495Z,29.48
2019-05-15T10:29:39.390Z,30.46
2019-05-15T10:30:39.613Z,29.69
2019-05-15T10:31:39.412Z,30.36
2019-05-15T10:32:39.853Z,29.30
2019-05-15T10:33:39.521Z,29.30
2019-05-15T10:34:39.422Z,28.84
2019-05-15T10:35:39.517Z,28.64
2019-05-15T10:36:39.438Z,29.22
2019-05-15T10:37:39.451Z,29.91
2019-05-15T10:38:39.456Z,29.33
2019-05-15T10:39:39.460Z,27.59
2019-05-15T10:40:49.711Z,27.11
2019-05-15T10:41:39.474Z,29.52
2019-05-15T10:42:40.091Z,29.54
2019-05-15T10:43:45.766Z,27.60
2019-05-15T10:44:39.496Z,28.96
2019-05-15T10:45:42.497Z,27.42
2019-05-15T10:46:39.510Z,26.27
2019-05-15T10:47:39.528Z,28.02
2019-05-15T10:48:39.539Z,27.82
2019-05-15T10:49:39.541Z,26.37
2019-05-15T10:50:39.543Z,25.21
2019-05-15T10:51:39.896Z,25.79
2019-05-15T10:52:39.558Z,27.34
2019-05-15T10:53:39.593Z,27.24
2019-05-15T10:54:39.586Z,27.05
2019-05-15T10:55:39.841Z,27.92
2019-05-15T10:56:39.589Z,27.34
2019-05-15T10:57:43.021Z,25.51
2019-05-15T10:58:39.605Z,24.44
2019-05-15T10:59:39.613Z,27.92
2019-05-15T11:00:39.636Z,27.62
2019-05-15T11:01:39.628Z,26.18
2019-05-15T11:02:39.686Z,26.10
2019-05-15T11:03:40.153Z,28.22
2019-05-15T11:04:39.651Z,27.56
2019-05-15T11:05:45.332Z,26.10
2019-05-15T11:06:39.667Z,24.75
2019-05-15T11:07:39.696Z,25.81
2019-05-15T11:08:40.629Z,26.18
2019-05-15T11:09:40.645Z,26.10
2019-05-15T11:10:41.931Z,28.23
2019-05-15T11:11:39.708Z,26.21
2019-05-15T11:12:39.717Z,26.29
2019-05-15T11:13:39.727Z,26.20
2019-05-15T11:14:39.732Z,25.81
2019-05-15T11:15:42.568Z,26.20
2019-05-15T11:16:39.749Z,26.68
2019-05-15T11:17:39.758Z,26.18
2019-05-15T11:18:39.967Z,24.44
2019-05-15T11:19:40.795Z,25.59
2019-05-15T11:20:41.297Z,25.80
2019-05-15T11:21:43.356Z,25.60
2019-05-15T11:22:42.883Z,25.03
2019-05-15T11:23:42.630Z,24.55
2019-05-15T11:24:39.813Z,26.18
2019-05-15T11:25:39.818Z,25.02
2019-05-15T11:26:39.826Z,25.31
2019-05-15T11:27:39.837Z,26.27
2019-05-15T11:28:39.842Z,26.75
2019-05-15T11:29:39.850Z,26.17
2019-05-15T11:30:39.854Z,24.63
2019-05-15T11:31:39.862Z,26.95
2019-05-15T11:32:39.870Z,26.86
2019-05-15T11:33:39.898Z,25.31
2019-05-15T11:34:39.891Z,26.27
2019-05-15T11:35:56.448Z,27.81
2019-05-15T11:36:39.899Z,29.07
2019-05-15T11:37:45.331Z,26.20
2019-05-15T11:38:39.914Z,23.99
2019-05-15T11:39:45.774Z,23.99
2019-05-15T11:40:39.928Z,23.03
2019-05-15T11:41:39.935Z,26.21
2019-05-15T11:42:39.942Z,25.93
2019-05-15T11:43:39.958Z,24.86
2019-05-15T11:44:39.956Z,22.83
2019-05-15T11:45:39.964Z,24.56
2019-05-15T11:46:39.971Z,24.65
2019-05-15T11:47:40.395Z,24.84
2019-05-15T11:48:39.987Z,27.83
2019-05-15T11:49:39.995Z,28.33
2019-05-15T11:50:40.306Z,25.54
2019-05-15T11:51:40.008Z,24.86
2019-05-15T11:52:40.665Z,24.95
2019-05-15T11:53:40.130Z,26.69
2019-05-15T11:54:40.043Z,24.86
2019-05-15T11:55:40.036Z,25.64
2019-05-15T11:56:40.044Z,25.45
2019-05-15T11:57:46.738Z,27.09
2019-05-15T11:58:40.063Z,26.22
2019-05-15T11:59:45.226Z,27.96
2019-05-15T12:00:40.071Z,25.45
2019-05-15T12:01:40.078Z,26.80
2019-05-15T12:02:40.085Z,26.12
2019-05-15T12:03:40.100Z,24.39
2019-05-15T12:04:40.099Z,23.98
2019-05-15T12:05:40.107Z,25.62
2019-05-15T12:06:40.112Z,26.02
2019-05-15T12:07:40.121Z,27.09
2019-05-15T12:08:40.129Z,28.63
2019-05-15T12:09:40.136Z,27.98
2019-05-15T12:10:40.141Z,24.50
2019-05-15T12:11:41.190Z,24.79
2019-05-15T12:12:40.155Z,24.51
2019-05-15T12:13:40.162Z,24.21
2019-05-15T12:14:40.168Z,24.61
2019-05-15T12:15:40.178Z,24.69
2019-05-15T12:16:40.405Z,25.86
2019-05-15T12:17:40.190Z,26.92
2019-05-15T12:18:40.197Z,22.77
2019-05-15T12:19:40.214Z,22.49
2019-05-15T12:20:40.210Z,24.61
2019-05-15T12:21:40.218Z,25.57
2019-05-15T12:22:40.225Z,24.32
2019-05-15T12:23:40.230Z,24.80
2019-05-15T12:24:40.762Z,24.69
2019-05-15T12:25:40.244Z,24.87
2019-05-15T12:26:40.254Z,26.51
2019-05-15T12:27:40.631Z,26.43
2019-05-15T12:28:40.878Z,24.77
2019-05-15T12:29:40.307Z,25.26
2019-05-15T12:30:40.706Z,24.48
2019-05-15T12:31:40.283Z,25.23
2019-05-15T12:32:40.760Z,25.23
2019-05-15T12:33:40.295Z,28.04
2019-05-15T12:34:40.299Z,26.70
2019-05-15T12:35:40.500Z,27.11
2019-05-15T12:37:40.459Z,26.23
2019-05-15T12:38:40.318Z,26.14
2019-05-15T12:39:41.044Z,27.19
2019-05-15T12:59:40.742Z,23.87
2019-05-15T13:00:40.424Z,25.72
2019-05-15T13:01:40.433Z,24.16
2019-05-15T13:02:40.431Z,24.07
2019-05-15T13:03:40.435Z,23.86
2019-05-15T13:04:40.441Z,24.15
2019-05-15T13:05:40.445Z,23.18
2019-05-15T13:06:53.182Z,22.67
2019-05-15T13:07:40.454Z,23.65
2019-05-15T13:08:40.459Z,23.94
2019-05-15T13:09:40.460Z,23.27
2019-05-15T13:10:40.463Z,23.94
2019-05-15T13:11:40.467Z,23.56
2019-05-15T13:12:55.584Z,24.52